Time;durP1;ratioP1;P1;durP2;ratioP2;P2;SDS_P1;SDS_P2;PMS_P1;PMS_P2;Temp;Humidity;BMP_temperature;BMP_pressure;BME280_temperature;BME280_humidity;BME280_pressure;Samples;Min_cycle;Max_cycle;Signal;HPM_P1;HPM_P2
2022/09/01 00:00:03;;;;;;;2.55;2.08;;;;;;;10.19;100.00;101692.13;4995500;28;20069;-82
2022/09/01 00:02:32;;;;;;;2.25;1.60;;;;;;;10.09;100.00;101696.56;4974702;28;20042;-82
2022/09/01 00:05:03;;;;;;;2.28;1.80;;;;;;;10.06;100.00;101699.19;4984491;28;20041;-82
2022/09/01 00:07:30;;;;;;;4.05;1.80;;;;;;;10.03;100.00;101695.69;4993794;28;20057;-82
2022/09/01 00:10:00;;;;;;;2.00;1.70;;;;;;;10.03;100.00;101696.56;4979459;28;20045;-82
2022/09/01 00:12:28;;;;;;;3.10;1.80;;;;;;;9.99;100.00;101694.78;4978132;28;20045;-82
2022/09/01 00:14:55;;;;;;;3.05;2.15;;;;;;;9.98;100.00;101698.31;4995748;28;20065;-82
2022/09/01 00:17:21;;;;;;;2.10;1.90;;;;;;;9.97;100.00;101708.88;4979067;28;20408;-82
2022/09/01 00:19:48;;;;;;;2.92;2.00;;;;;;;9.96;100.00;101710.66;4995194;28;20050;-82
2022/09/01 00:22:15;;;;;;;2.22;1.77;;;;;;;9.94;100.00;101706.25;4994398;28;20042;-82
2022/09/01 00:24:42;;;;;;;3.08;2.00;;;;;;;9.91;100.00;101706.25;4995509;28;20401;-82
2022/09/01 00:27:08;;;;;;;2.80;2.00;;;;;;;10.02;100.00;101701.84;5010476;28;20049;-82
2022/09/01 00:29:35;;;;;;;3.33;2.10;;;;;;;9.98;100.00;101706.25;4979899;28;20052;-81
2022/09/01 00:32:03;;;;;;;4.22;2.08;;;;;;;9.94;100.00;101704.50;4979098;28;20034;-82
2022/09/01 00:34:29;;;;;;;2.33;1.80;;;;;;;9.91;100.00;101709.75;4974537;28;20046;-82
2022/09/01 00:36:56;;;;;;;1.80;1.50;;;;;;;9.90;100.00;101707.13;4978707;28;20050;-82
2022/09/01 00:39:23;;;;;;;2.67;1.88;;;;;;;9.90;100.00;101702.72;5011867;28;20045;-82
2022/09/01 00:41:50;;;;;;;2.20;1.75;;;;;;;9.90;100.00;101702.72;4979135;28;20078;-82
2022/09/01 00:44:22;;;;;;;2.00;1.80;;;;;;;9.88;100.00;101710.66;4985877;28;20050;-81
2022/09/01 00:46:54;;;;;;;1.77;1.65;;;;;;;9.82;100.00;101704.50;4992370;28;20396;-81
2022/09/01 00:49:31;;;;;;;2.00;1.65;;;;;;;9.81;100.00;101700.97;4982912;28;20042;-82
2022/09/01 00:52:07;;;;;;;2.20;1.83;;;;;;;9.78;100.00;101698.34;4999326;28;20046;-81
2022/09/01 00:54:38;;;;;;;2.72;1.55;;;;;;;9.76;100.00;101701.88;5007229;28;20048;-81
2022/09/01 00:57:07;;;;;;;3.42;1.80;;;;;;;9.72;100.00;101694.84;4979564;28;20070;-82
2022/09/01 00:59:35;;;;;;;2.42;1.83;;;;;;;9.63;100.00;101692.19;4996560;28;20137;-81
2022/09/01 01:02:02;;;;;;;2.50;1.60;;;;;;;9.62;100.00;101698.34;4979007;28;20038;-81
2022/09/01 01:04:30;;;;;;;3.65;2.53;;;;;;;9.52;100.00;101685.16;4979938;28;20506;-80
2022/09/01 01:07:00;;;;;;;2.75;1.75;;;;;;;9.50;100.00;101684.31;5012967;28;20046;-79
2022/09/01 01:09:30;;;;;;;1.92;1.70;;;;;;;9.44;100.00;101691.31;4998573;28;20076;-79
2022/09/01 01:11:59;;;;;;;2.50;1.70;;;;;;;9.38;100.00;101680.75;4983410;28;20128;-81
2022/09/01 01:14:28;;;;;;;2.33;1.90;;;;;;;9.36;100.00;101690.44;4981373;28;20045;-79
2022/09/01 01:16:55;;;;;;;2.30;1.88;;;;;;;9.35;100.00;101688.69;5000375;28;20396;-79
2022/09/01 01:25:21;;;;;;;2.23;1.70;;;;;;;9.15;100.00;101683.34;5047535;28;20052;-80
2022/09/01 01:27:47;;;;;;;2.53;1.90;;;;;;;9.14;100.00;101681.59;5015008;28;20041;-78
2022/09/01 01:30:17;;;;;;;2.27;1.70;;;;;;;9.19;100.00;101691.28;5016861;28;20429;-79
2022/09/01 01:32:46;;;;;;;3.30;2.07;;;;;;;9.18;100.00;101680.75;5008098;28;20549;-79
2022/09/01 01:35:15;;;;;;;2.67;2.03;;;;;;;9.05;100.00;101684.22;5008992;28;20037;-79
2022/09/01 01:37:44;;;;;;;2.57;2.10;;;;;;;9.08;100.00;101677.22;5011726;28;20048;-78
2022/09/01 01:40:14;;;;;;;2.60;2.17;;;;;;;9.04;100.00;101667.53;5025591;28;20084;-78
2022/09/01 01:42:47;;;;;;;3.25;1.90;;;;;;;8.93;100.00;101683.34;5006572;28;20030;-79
2022/09/01 01:45:16;;;;;;;2.53;1.92;;;;;;;9.01;100.00;101676.31;5006144;28;20045;-78
2022/09/01 01:47:51;;;;;;;2.30;2.08;;;;;;;8.99;100.00;101674.53;5004846;28;20041;-78
2022/09/01 01:50:32;;;;;;;2.37;2.17;;;;;;;8.91;100.00;101677.19;5008585;28;20037;-79
2022/09/01 01:53:01;;;;;;;2.83;2.10;;;;;;;8.76;100.00;101671.88;5009433;28;20816;-78
2022/09/01 01:55:36;;;;;;;2.63;2.07;;;;;;;8.72;100.00;101665.69;5011012;28;20091;-79
2022/09/01 01:58:04;;;;;;;3.20;2.33;;;;;;;8.73;100.00;101671.84;5028565;28;20136;-80
2022/09/01 02:00:33;;;;;;;2.27;1.80;;;;;;;8.80;100.00;101673.63;5011318;28;20412;-78
2022/09/01 02:03:00;;;;;;;2.90;2.10;;;;;;;8.70;100.00;101674.47;5008749;28;20114;-79
2022/09/01 02:05:31;;;;;;;2.57;2.03;;;;;;;8.81;100.00;101674.50;4991842;28;20144;-79
2022/09/01 02:08:04;;;;;;;3.03;2.00;;;;;;;8.69;100.00;101673.59;5012195;28;20069;-79
2022/09/01 02:10:34;;;;;;;3.90;2.33;;;;;;;8.56;100.00;101674.41;5010207;28;20095;-78
2022/09/01 02:13:05;;;;;;;2.73;1.93;;;;;;;8.64;100.00;101672.69;4993262;28;20051;-79
2022/09/01 02:15:41;;;;;;;2.93;2.27;;;;;;;8.61;100.00;101674.44;5035331;28;20034;-79
2022/09/01 02:18:18;;;;;;;3.80;2.20;;;;;;;8.56;100.00;101670.91;4990138;28;20049;-78
2022/09/01 02:20:48;;;;;;;3.37;2.43;;;;;;;8.58;100.00;101670.06;5024975;28;20651;-78
2022/09/01 02:23:22;;;;;;;5.10;2.50;;;;;;;8.64;100.00;101670.03;5024868;28;20040;-78
2022/09/01 02:25:52;;;;;;;2.38;2.03;;;;;;;8.54;100.00;101667.38;5024411;28;20049;-79
2022/09/01 02:28:41;;;;;;;2.80;1.93;;;;;;;8.43;100.00;101672.63;5022437;28;20053;-78
2022/09/01 02:31:09;;;;;;;2.33;1.70;;;;;;;8.48;100.00;101676.13;5002294;28;20037;-78
2022/09/01 02:33:37;;;;;;;2.50;1.87;;;;;;;8.48;100.00;101673.50;5012205;28;20128;-78
2022/09/01 02:36:08;;;;;;;2.57;2.30;;;;;;;8.44;100.00;101669.97;5027695;28;20038;-78
2022/09/01 02:38:35;;;;;;;3.00;2.07;;;;;;;8.42;100.00;101662.97;5002420;28;20045;-78
2022/09/01 02:41:04;;;;;;;2.67;2.00;;;;;;;8.37;100.00;101660.28;4982657;28;20053;-79
2022/09/01 02:43:32;;;;;;;3.73;2.03;;;;;;;8.43;100.00;101662.09;5006500;28;20038;-79
2022/09/01 02:46:01;;;;;;;3.13;1.97;;;;;;;8.40;100.00;101672.56;5017731;28;20535;-78
2022/09/01 02:48:31;;;;;;;2.37;1.80;;;;;;;8.32;100.00;101661.97;4982741;28;20403;-78
2022/09/01 02:51:00;;;;;;;2.57;2.10;;;;;;;8.37;100.00;101664.69;5017350;28;20049;-78
2022/09/01 02:53:29;;;;;;;2.50;1.90;;;;;;;8.32;100.00;101669.88;5004501;28;20481;-78
2022/09/01 02:55:58;;;;;;;3.70;2.23;;;;;;;8.27;100.00;101662.84;4987272;28;20068;-78
2022/09/01 02:58:25;;;;;;;3.47;2.33;;;;;;;8.25;100.00;101668.09;5023788;28;20128;-79
2022/09/01 03:00:55;;;;;;;2.40;2.00;;;;;;;8.14;100.00;101664.50;5011233;28;20048;-78
2022/09/01 03:03:23;;;;;;;4.20;2.67;;;;;;;8.13;100.00;101658.38;4998187;28;20030;-78
2022/09/01 03:05:55;;;;;;;3.80;2.80;;;;;;;8.13;100.00;101662.75;5012247;28;20101;-78
2022/09/01 03:08:23;;;;;;;3.47;2.00;;;;;;;8.08;100.00;101661.88;5012571;28;20514;-79
2022/09/01 03:10:52;;;;;;;3.23;2.37;;;;;;;8.04;100.00;101662.72;5007451;28;20506;-78
2022/09/01 03:13:22;;;;;;;2.73;2.37;;;;;;;7.95;100.00;101674.06;5015879;28;20033;-78
2022/09/01 03:15:49;;;;;;;3.60;2.50;;;;;;;7.97;100.00;101664.41;4997016;28;20996;-78
2022/09/01 03:18:17;;;;;;;3.83;2.20;;;;;;;7.99;100.00;101664.41;5009020;28;20543;-78
2022/09/01 03:20:45;;;;;;;3.07;2.57;;;;;;;8.01;100.00;101674.09;5003924;28;20057;-78
2022/09/01 03:23:15;;;;;;;3.43;2.67;;;;;;;7.98;100.00;101662.66;5009470;28;20394;-79
2022/09/01 03:25:46;;;;;;;4.10;2.03;;;;;;;7.96;100.00;101662.66;4988269;28;20132;-79
2022/09/01 03:28:14;;;;;;;3.37;2.27;;;;;;;7.87;100.00;101660.84;5006987;28;20041;-78
2022/09/01 03:30:49;;;;;;;3.60;2.40;;;;;;;7.80;100.00;101660.78;5015727;28;20049;-80
2022/09/01 03:33:18;;;;;;;3.73;2.13;;;;;;;7.85;100.00;101665.22;5034343;28;20486;-78
2022/09/01 03:35:46;;;;;;;4.90;2.20;;;;;;;7.82;100.00;101659.97;5010422;28;20088;-78
2022/09/01 03:38:19;;;;;;;4.03;2.47;;;;;;;7.75;100.00;101665.16;4991930;28;20068;-78
2022/09/01 03:40:48;;;;;;;3.60;2.30;;;;;;;7.77;100.00;101669.56;5028595;28;20052;-79
2022/09/01 03:43:15;;;;;;;3.27;2.40;;;;;;;7.79;100.00;101665.19;5002019;28;20042;-79
2022/09/01 03:45:42;;;;;;;2.93;2.20;;;;;;;7.77;100.00;101664.28;4998315;28;20587;-80
2022/09/01 03:48:09;;;;;;;2.77;2.13;;;;;;;7.78;100.00;101657.28;5034501;28;20479;-79
2022/09/01 03:50:39;;;;;;;2.60;2.10;;;;;;;7.72;100.00;101660.75;5011607;28;20057;-79
2022/09/01 03:53:07;;;;;;;3.53;2.33;;;;;;;7.63;100.00;101665.94;5019561;28;20034;-79
2022/09/01 03:55:36;;;;;;;3.43;2.47;;;;;;;7.66;100.00;101663.34;5003738;28;20395;-79
2022/09/01 03:58:06;;;;;;;3.63;2.30;;;;;;;7.75;100.00;101667.78;5028709;28;20106;-78
2022/09/01 04:00:38;;;;;;;3.93;2.40;;;;;;;7.79;100.00;101673.06;4991148;28;20052;-79
2022/09/01 04:03:07;;;;;;;3.93;2.33;;;;;;;7.73;100.00;101667.75;5012846;28;20465;-78
2022/09/01 04:05:36;;;;;;;3.33;2.40;;;;;;;7.74;100.00;101663.41;5007128;28;20396;-79
2022/09/01 04:08:06;;;;;;;3.70;2.40;;;;;;;7.68;100.00;101663.34;5011734;28;20099;-78
2022/09/01 04:10:34;;;;;;;3.30;2.63;;;;;;;7.70;100.00;101665.13;4992101;28;20049;-78
2022/09/01 04:13:01;;;;;;;3.37;2.50;;;;;;;7.60;100.00;101656.28;5014705;28;20037;-78
2022/09/01 04:15:29;;;;;;;3.00;2.43;;;;;;;7.53;100.00;101662.34;5015132;28;20100;-78
2022/09/01 04:18:18;;;;;;;3.17;2.53;;;;;;;7.49;100.00;101662.34;5013667;28;20100;-79
2022/09/01 04:20:55;;;;;;;3.90;2.40;;;;;;;7.52;100.00;101664.97;4997195;28;20051;-78
2022/09/01 04:23:32;;;;;;;4.23;2.57;;;;;;;7.51;100.00;101660.59;4999359;28;20047;-78
2022/09/01 04:26:12;;;;;;;4.03;2.63;;;;;;;7.48;100.00;101660.56;5011331;28;20056;-78
2022/09/01 04:28:44;;;;;;;2.30;2.10;;;;;;;7.42;100.00;101658.78;5008561;28;20030;-78
2022/09/01 04:31:19;;;;;;;4.20;2.17;;;;;;;7.47;100.00;101656.16;5010539;28;20041;-78
2022/09/01 04:33:51;;;;;;;3.47;2.50;;;;;;;7.49;100.00;101655.31;5014858;28;20033;-78
2022/09/01 04:36:30;;;;;;;4.90;2.10;;;;;;;7.42;100.00;101657.88;5004719;28;20045;-78
2022/09/01 04:38:59;;;;;;;2.20;2.00;;;;;;;7.39;100.00;101655.22;5031416;28;20065;-79
2022/09/01 04:41:30;;;;;;;2.77;2.30;;;;;;;7.43;100.00;101652.63;5011252;28;20448;-78
2022/09/01 04:44:03;;;;;;;3.47;2.23;;;;;;;7.54;100.00;101653.59;5024823;28;20041;-78
2022/09/01 04:46:34;;;;;;;3.30;2.23;;;;;;;7.59;100.00;101654.53;4989226;28;20042;-80
2022/09/01 04:49:06;;;;;;;3.83;2.33;;;;;;;7.51;100.00;101650.06;5014071;28;20041;-78
2022/09/01 04:51:40;;;;;;;5.60;2.40;;;;;;;7.52;100.00;101655.34;4994767;28;20415;-78
2022/09/01 04:54:13;;;;;;;3.07;2.30;;;;;;;7.57;100.00;101653.66;4992768;28;20430;-80
2022/09/01 04:56:45;;;;;;;3.13;2.40;;;;;;;7.56;100.00;101653.59;5016660;28;20044;-80
2022/09/01 04:59:12;;;;;;;3.50;2.17;;;;;;;7.48;100.00;101661.47;5009298;28;20042;-79
2022/09/01 05:01:43;;;;;;;2.77;2.47;;;;;;;7.55;100.00;101659.72;5031894;28;20049;-79
2022/09/01 05:04:32;;;;;;;3.53;2.50;;;;;;;7.68;100.00;101668.63;5043588;28;20125;-79
2022/09/01 05:07:00;;;;;;;4.23;2.40;;;;;;;7.54;100.00;101664.13;4999077;28;20573;-77
2022/09/01 05:09:29;;;;;;;3.07;2.47;;;;;;;7.55;100.00;101670.25;4996943;28;20041;-80
2022/09/01 05:11:57;;;;;;;3.70;2.70;;;;;;;7.55;100.00;101665.88;5031454;28;20069;-79
2022/09/01 05:14:24;;;;;;;3.80;2.50;;;;;;;7.49;100.00;101667.59;5031092;28;20048;-80
2022/09/01 05:16:57;;;;;;;2.97;2.60;;;;;;;7.57;100.00;101655.41;4993779;28;20048;-80
2022/09/01 05:19:27;;;;;;;4.03;2.20;;;;;;;7.68;100.00;101658.97;5016696;28;20037;-79
2022/09/01 05:21:56;;;;;;;4.13;2.57;;;;;;;7.61;100.00;101657.16;5015917;28;20140;-79
2022/09/01 05:24:29;;;;;;;2.57;2.03;;;;;;;7.61;100.00;101658.03;5017836;28;20038;-80
2022/09/01 05:26:57;;;;;;;3.47;2.53;;;;;;;7.66;100.00;101654.59;5001052;28;20068;-80
2022/09/01 05:29:26;;;;;;;3.83;2.67;;;;;;;7.67;100.00;101643.19;5001586;28;20049;-79
2022/09/01 05:31:57;;;;;;;3.57;2.43;;;;;;;7.74;100.00;101651.13;4999579;28;20045;-79
2022/09/01 05:34:29;;;;;;;3.67;2.87;;;;;;;7.74;100.00;101643.25;5032621;28;20451;-79
2022/09/01 05:36:58;;;;;;;4.13;2.60;;;;;;;7.76;100.00;101651.13;4996610;28;20052;-79
2022/09/01 05:39:26;;;;;;;2.63;2.43;;;;;;;7.85;100.00;101656.47;4981195;28;20080;-79
2022/09/01 05:41:52;;;;;;;4.27;2.90;;;;;;;7.82;100.00;101657.34;5005885;28;20037;-79
2022/09/01 05:44:23;;;;;;;2.97;2.50;;;;;;;7.85;100.00;101656.47;5018709;28;20044;-80
2022/09/01 05:46:50;;;;;;;3.37;2.60;;;;;;;7.92;100.00;101660.91;5027645;28;20042;-79
2022/09/01 05:49:17;;;;;;;4.40;2.53;;;;;;;8.03;100.00;101656.56;5003044;28;20092;-81
2022/09/01 05:51:48;;;;;;;3.50;2.80;;;;;;;8.05;100.00;101657.44;5031852;28;20565;-80
2022/09/01 05:54:26;;;;;;;4.57;2.60;;;;;;;8.08;100.00;101664.50;5003153;28;20033;-80
2022/09/01 05:56:56;;;;;;;3.30;3.00;;;;;;;8.15;100.00;101661.88;4996381;28;20061;-81
2022/09/01 05:59:34;;;;;;;4.60;2.40;;;;;;;8.22;100.00;101656.66;5000158;28;20046;-80
2022/09/01 06:02:01;;;;;;;3.50;2.60;;;;;;;8.35;100.00;101663.78;5013828;28;20128;-80
2022/09/01 06:04:29;;;;;;;5.03;2.93;;;;;;;8.42;100.00;101653.31;4996138;28;20061;-80
2022/09/01 06:06:56;;;;;;;4.30;3.23;;;;;;;8.45;100.00;101655.94;5005413;28;20053;-79
2022/09/01 06:09:38;;;;;;;3.43;2.53;;;;;;;8.49;100.00;101659.44;5036704;28;20564;-79
2022/09/01 06:12:05;;;;;;;6.03;2.40;;;;;;;8.59;100.00;101660.38;5015907;28;20045;-80
2022/09/01 06:14:33;;;;;;;4.07;2.70;;;;;;;8.93;100.00;101667.53;5015880;28;20052;-79
2022/09/01 06:17:01;;;;;;;3.17;2.60;;;;;;;9.03;100.00;101653.47;5026987;28;20486;-78
2022/09/01 06:19:28;;;;;;;5.53;2.78;;;;;;;9.10;100.00;101659.66;5017026;28;20037;-79
2022/09/01 06:22:01;;;;;;;4.15;2.67;;;;;;;9.41;100.00;101657.88;5004997;28;20049;-79
2022/09/01 06:24:28;;;;;;;2.72;1.98;;;;;;;10.41;100.00;101656.00;5002051;28;20041;-79
2022/09/01 06:26:55;;;;;;;2.38;1.98;;;;;;;12.01;100.00;101656.63;5002721;28;20594;-78
2022/09/01 06:29:22;;;;;;;1.60;1.40;;;;;;;13.71;100.00;101645.44;5002613;28;20049;-78
2022/09/01 06:31:51;;;;;;;2.80;1.45;;;;;;;14.92;100.00;101648.34;5015920;28;20049;-79
2022/09/01 06:34:18;;;;;;;1.52;1.20;;;;;;;16.27;89.81;101646.69;5016033;28;20042;-79
2022/09/01 06:36:47;;;;;;;1.58;1.30;;;;;;;17.08;85.20;101654.09;5025224;28;20414;-79
2022/09/01 06:39:21;;;;;;;1.65;1.25;;;;;;;18.33;77.36;101647.16;5011592;28;20060;-79
2022/09/01 06:41:51;;;;;;;1.85;1.20;;;;;;;19.16;68.34;101643.94;4997174;28;20069;-79
2022/09/01 06:44:21;;;;;;;2.17;1.17;;;;;;;19.81;67.09;101638.53;4995211;28;20049;-79
2022/09/01 06:46:50;;;;;;;1.70;1.15;;;;;;;19.96;67.13;101656.66;4993924;28;20100;-79
2022/09/01 06:49:20;;;;;;;2.22;1.40;;;;;;;20.10;63.58;101661.44;5027556;28;20629;-79
2022/09/01 06:51:50;;;;;;;3.88;1.30;;;;;;;20.79;63.91;101661.84;5014183;28;20485;-79
2022/09/01 06:54:18;;;;;;;3.08;1.50;;;;;;;21.02;65.21;101654.50;5022650;28;20081;-79
2022/09/01 06:56:47;;;;;;;3.60;1.80;;;;;;;20.92;66.72;101662.13;5026387;28;20056;-79
2022/09/01 06:59:19;;;;;;;1.42;1.33;;;;;;;21.24;65.46;101655.19;5017158;28;20065;-80
2022/09/01 07:01:47;;;;;;;1.63;1.27;;;;;;;21.47;64.41;101656.78;4994437;28;20042;-79
2022/09/01 07:04:18;;;;;;;2.33;1.50;;;;;;;21.54;65.44;101660.91;4990804;28;20065;-80
2022/09/01 07:06:51;;;;;;;2.00;1.10;;;;;;;21.88;64.29;101652.00;4993241;28;20053;-78
2022/09/01 07:09:28;;;;;;;1.45;1.00;;;;;;;21.88;63.37;101649.31;4991036;28;20042;-79
2022/09/01 07:12:18;;;;;;;1.50;1.13;;;;;;;21.92;64.95;101655.38;5006873;28;20518;-80
2022/09/01 07:15:05;;;;;;;1.50;1.20;;;;;;;22.16;62.99;101653.25;4995617;28;20376;-79
2022/09/01 07:17:55;;;;;;;1.92;1.00;;;;;;;21.81;58.70;101655.94;4999656;28;20150;-79
2022/09/01 07:20:26;;;;;;;2.08;1.13;;;;;;;21.67;58.78;101658.47;4996128;28;20045;-80
2022/09/01 07:22:55;;;;;;;2.35;1.10;;;;;;;21.47;60.98;101669.38;4995256;28;20065;-80
2022/09/01 07:25:33;;;;;;;2.78;1.00;;;;;;;21.69;61.53;101661.94;4994110;28;20125;-79
2022/09/01 07:28:22;;;;;;;1.70;1.00;;;;;;;21.56;63.53;101666.22;5013976;28;20091;-79
2022/09/01 07:30:52;;;;;;;1.35;1.10;;;;;;;21.31;57.87;101659.38;5082112;23;20056;-81
2022/09/01 07:33:22;;;;;;;0.80;0.80;;;;;;;20.88;58.37;101659.69;5000341;28;20042;-80
2022/09/01 07:36:09;;;;;;;1.10;0.90;;;;;;;20.28;62.72;101665.09;4981592;28;20045;-81
2022/09/01 07:38:52;;;;;;;2.60;1.02;;;;;;;20.40;64.21;101669.91;4995840;28;20129;-80
2022/09/01 07:41:40;;;;;;;1.05;0.90;;;;;;;19.25;64.87;101663.19;4980668;28;20120;-81
2022/09/01 07:44:27;;;;;;;1.10;1.00;;;;;;;19.82;65.38;101669.78;4984398;28;20045;-81
2022/09/01 07:46:54;;;;;;;1.02;0.90;;;;;;;19.11;65.40;101674.50;5006378;28;20091;-81
2022/09/01 07:49:40;;;;;;;1.08;0.90;;;;;;;19.68;67.57;101662.34;4997666;28;20065;-80
2022/09/01 07:52:28;;;;;;;1.20;0.90;;;;;;;19.53;65.81;101676.34;5011095;28;20045;-81
2022/09/01 07:54:54;;;;;;;1.83;0.90;;;;;;;19.47;65.35;101668.56;5015943;28;20045;-80
2022/09/01 07:57:21;;;;;;;0.75;0.70;;;;;;;19.18;64.90;101668.91;4998013;28;20034;-80
2022/09/01 07:59:50;;;;;;;1.02;0.95;;;;;;;19.11;65.07;101678.97;5011388;28;20045;-80
2022/09/01 08:02:17;;;;;;;1.92;0.98;;;;;;;19.15;67.06;101674.34;5010177;28;20487;-81
2022/09/01 08:04:44;;;;;;;0.80;0.80;;;;;;;19.14;66.07;101676.16;5015712;28;20463;-80
2022/09/01 08:07:11;;;;;;;1.75;0.70;;;;;;;19.12;64.67;101672.69;5015155;28;20052;-81
2022/09/01 08:09:41;;;;;;;2.25;0.93;;;;;;;18.75;68.10;101681.25;5002916;28;20653;-78
2022/09/01 08:12:09;;;;;;;1.55;0.80;;;;;;;18.84;66.90;101672.91;5003533;28;20046;-78
2022/09/01 08:14:36;;;;;;;2.30;0.70;;;;;;;18.85;69.27;101674.66;4998479;28;20033;-78
2022/09/01 08:17:04;;;;;;;2.55;0.90;;;;;;;18.87;68.08;101678.13;5014973;28;20474;-77
2022/09/01 08:19:52;;;;;;;1.00;0.70;;;;;;;18.67;69.03;101683.38;5006503;28;20064;-77
2022/09/01 08:22:24;;;;;;;0.80;0.70;;;;;;;18.78;71.11;101679.34;5014668;28;20041;-78
2022/09/01 08:24:51;;;;;;;1.90;0.93;;;;;;;18.91;69.96;101671.69;4997538;28;20637;-81
2022/09/01 08:27:18;;;;;;;1.35;0.70;;;;;;;18.84;70.66;101678.25;4999576;28;20041;-77
2022/09/01 08:29:45;;;;;;;0.82;0.80;;;;;;;18.85;67.98;101671.97;4999761;28;20124;-78
2022/09/01 08:32:12;;;;;;;1.02;0.90;;;;;;;19.05;68.60;101679.22;5016243;28;20051;-78
2022/09/01 08:34:38;;;;;;;1.27;0.70;;;;;;;18.99;65.38;101674.94;4999754;28;20049;-80
2022/09/01 08:37:05;;;;;;;1.58;0.80;;;;;;;19.11;66.40;101668.25;5016926;28;20117;-78
2022/09/01 08:39:32;;;;;;;0.82;0.70;;;;;;;19.27;68.64;101674.75;5018156;28;20069;-77
2022/09/01 08:42:11;;;;;;;2.38;0.68;;;;;;;19.44;66.79;101675.88;5016380;28;20037;-80
2022/09/01 08:44:44;;;;;;;1.70;0.80;;;;;;;19.38;64.80;101676.97;5024991;28;20049;-80
2022/09/01 08:47:12;;;;;;;;;;;;;;;19.49;66.76;101677.41;5013444;28;20044;-79
2022/09/01 08:49:44;;;;;;;1.23;0.70;;;;;;;19.14;65.62;101678.84;4996573;28;20004;-82
2022/09/01 08:52:25;;;;;;;0.75;0.75;;;;;;;18.92;66.20;101684.19;4996076;28;20407;-79
2022/09/01 08:55:09;;;;;;;2.22;1.15;;;;;;;18.62;67.30;101691.53;5014655;28;20132;-78
2022/09/01 08:57:38;;;;;;;3.45;0.50;;;;;;;18.66;65.10;101681.59;5003257;28;20074;-78
2022/09/01 09:00:12;;;;;;;2.58;0.75;;;;;;;18.81;68.21;101673.00;5006594;28;20132;-81
2022/09/01 09:03:00;;;;;;;1.33;0.88;;;;;;;19.12;69.51;101667.31;5031540;28;20659;-78
2022/09/01 09:05:47;;;;;;;1.02;0.70;;;;;;;19.65;59.32;101661.59;5014157;28;20038;-81
2022/09/01 09:08:51;;;;;;;1.27;0.82;;;;;;;20.29;60.11;101661.47;4994467;28;20052;-79
2022/09/01 09:11:26;;;;;;;0.80;0.60;;;;;;;20.95;57.61;101666.50;5008015;28;20044;-79
2022/09/01 09:13:58;;;;;;;1.30;0.90;;;;;;;20.86;56.21;101662.44;5010352;28;20034;-79
2022/09/01 09:16:36;;;;;;;1.30;0.80;;;;;;;21.31;56.14;101653.13;5020407;28;20049;-79
2022/09/01 09:19:27;;;;;;;2.17;0.70;;;;;;;21.70;54.21;101657.47;5012941;28;20041;-77
2022/09/01 09:21:55;;;;;;;0.65;0.65;;;;;;;21.93;50.35;101652.59;5012358;28;20044;-79
2022/09/01 09:24:48;;;;;;;0.60;0.60;;;;;;;22.04;49.54;101656.59;5013139;28;20042;-80
2022/09/01 09:27:37;;;;;;;4.57;1.13;;;;;;;22.17;48.82;101649.63;5025583;28;20371;-78
2022/09/01 09:30:25;;;;;;;1.00;0.65;;;;;;;21.74;49.74;101661.72;5031766;28;20042;-77
2022/09/01 09:32:54;;;;;;;1.40;0.70;;;;;;;21.29;49.08;101655.03;5014055;28;20064;-81
2022/09/01 09:35:45;;;;;;;1.13;0.77;;;;;;;21.14;48.60;101648.53;5015744;28;20080;-79
2022/09/01 09:38:18;;;;;;;0.98;0.70;;;;;;;20.83;51.07;101661.69;5031127;28;20041;-77
2022/09/01 09:41:15;;;;;;;1.45;0.60;;;;;;;20.74;48.94;101658.50;5029688;28;20969;-78
2022/09/01 09:43:59;;;;;;;3.08;0.90;;;;;;;20.68;52.95;101655.22;4999585;28;20103;-78
2022/09/01 09:46:26;;;;;;;3.58;0.75;;;;;;;20.72;51.08;101659.53;5010323;28;20046;-78
2022/09/01 09:49:19;;;;;;;1.65;0.63;;;;;;;20.38;50.17;101658.38;5019749;28;20037;-80
2022/09/01 09:52:07;;;;;;;0.80;0.70;;;;;;;20.40;52.54;101651.09;5009520;28;20049;-78
2022/09/01 09:54:36;;;;;;;1.00;0.50;;;;;;;20.33;51.31;101649.63;5011655;28;20061;-78
2022/09/01 09:57:08;;;;;;;0.95;0.90;;;;;;;20.47;51.98;101654.44;4980852;28;20487;-82
2022/09/01 09:59:42;;;;;;;0.70;0.70;;;;;;;20.43;49.69;101658.13;5012471;28;20065;-78
2022/09/01 10:02:34;;;;;;;1.98;0.80;;;;;;;20.58;51.77;101644.06;4999596;28;20046;-78
2022/09/01 10:05:16;;;;;;;;;;;;;;;20.67;48.29;101654.34;5014071;28;20038;-78
2022/09/01 10:07:43;;;;;;;0.73;0.70;;;;;;;20.62;50.82;101651.03;5010258;28;19952;-80
2022/09/01 10:10:44;;;;;;;1.65;0.80;;;;;;;20.55;48.71;101656.75;5005362;28;20064;-80
2022/09/01 10:13:25;;;;;;;0.75;0.70;;;;;;;20.48;51.28;101651.66;5024700;28;20050;-79
2022/09/01 10:15:55;;;;;;;0.60;0.60;;;;;;;20.58;49.04;101652.09;5010433;28;20045;-78
2022/09/01 10:18:40;;;;;;;1.00;0.90;;;;;;;20.44;46.49;101654.56;5013203;28;20038;-80
2022/09/01 10:21:33;;;;;;;0.65;0.57;;;;;;;20.36;47.78;101651.34;5009105;28;20034;-80
2022/09/01 10:24:06;;;;;;;0.87;0.70;;;;;;;20.33;48.72;101652.31;4989485;28;20065;-80
2022/09/01 10:26:56;;;;;;;0.60;0.60;;;;;;;20.39;49.42;101653.88;5006417;28;20041;-80
2022/09/01 10:29:53;;;;;;;0.63;0.63;;;;;;;20.38;50.96;101646.75;4986769;28;20037;-79
2022/09/01 10:32:59;;;;;;;1.38;0.85;;;;;;;20.31;52.91;101659.59;5000050;28;20049;-78
2022/09/01 10:35:47;;;;;;;1.05;0.75;;;;;;;20.45;54.35;101657.19;5024046;28;21043;-79
2022/09/01 10:38:18;;;;;;;1.70;0.93;;;;;;;20.41;53.26;101654.66;4990539;28;20063;-80
2022/09/01 10:40:49;;;;;;;1.75;0.70;;;;;;;20.14;54.54;101662.16;4996249;28;20065;-81
2022/09/01 10:43:24;;;;;;;1.70;0.90;;;;;;;20.29;56.09;101660.59;4987322;28;20374;-82
2022/09/01 10:45:51;;;;;;;4.40;1.00;;;;;;;20.28;53.85;101662.41;5008394;28;20041;-79
2022/09/01 10:48:32;;;;;;;1.38;0.75;;;;;;;19.83;54.65;101668.84;5004498;28;20104;-80
2022/09/01 10:51:11;;;;;;;11.68;2.78;;;;;;;20.14;58.73;101668.38;5020618;28;20040;-78
2022/09/01 10:53:49;;;;;;;0.82;0.60;;;;;;;20.13;56.74;101661.28;5029884;28;20561;-81
2022/09/01 10:56:26;;;;;;;0.77;0.70;;;;;;;20.34;56.84;101661.25;4992427;28;20109;-80
2022/09/01 10:59:20;;;;;;;0.70;0.70;;;;;;;20.41;53.68;101662.72;5012194;28;20095;-81
2022/09/01 11:02:07;;;;;;;1.05;0.70;;;;;;;20.31;56.41;101656.03;5006969;28;20030;-80
2022/09/01 11:04:53;;;;;;;1.08;0.77;;;;;;;20.41;54.58;101649.28;5014153;28;20045;-78
2022/09/01 11:07:20;;;;;;;1.02;0.70;;;;;;;20.21;54.45;101651.06;5012504;28;20045;-78
2022/09/01 11:10:22;;;;;;;0.88;0.77;;;;;;;20.50;53.90;101647.09;5016374;28;20080;-80
2022/09/01 11:13:27;;;;;;;0.65;0.65;;;;;;;20.67;53.15;101645.44;5004016;28;20046;-80
2022/09/01 11:15:55;;;;;;;1.25;0.70;;;;;;;20.89;52.24;101642.63;4999372;28;21357;-84
2022/09/01 11:18:29;;;;;;;2.50;1.52;;;;;;;20.85;54.48;101635.63;4995494;28;20046;-79
2022/09/01 11:21:14;;;;;;;0.93;0.70;;;;;;;21.09;53.53;101631.75;4997245;28;20503;-81
2022/09/01 11:23:41;;;;;;;1.15;0.80;;;;;;;21.21;52.16;101635.69;4998568;28;20065;-82
2022/09/01 11:26:45;;;;;;;0.75;0.70;;;;;;;21.20;51.45;101636.63;4996911;28;20132;-79
2022/09/01 11:29:50;;;;;;;0.98;0.77;;;;;;;21.21;53.79;101631.19;4995862;28;20077;-80
2022/09/01 11:32:20;;;;;;;0.98;0.85;;;;;;;21.19;52.94;101632.19;5002513;28;20042;-79
2022/09/01 11:34:48;;;;;;;0.98;0.90;;;;;;;21.14;50.34;101627.03;5002141;28;20037;-78
2022/09/01 11:37:17;;;;;;;0.95;0.80;;;;;;;21.21;51.26;101627.63;5017458;28;20038;-79
2022/09/01 11:39:50;;;;;;;0.80;0.80;;;;;;;21.41;49.83;101626.66;5018078;28;20139;-81
2022/09/01 11:42:18;;;;;;;0.65;0.65;;;;;;;21.20;50.70;101625.88;5015063;28;20037;-80
2022/09/01 11:44:59;;;;;;;1.42;0.80;;;;;;;21.22;50.96;101632.91;5034536;28;20042;-81
2022/09/01 11:47:31;;;;;;;0.82;0.80;;;;;;;20.98;51.63;101629.59;5033400;28;20391;-81
2022/09/01 11:50:01;;;;;;;1.95;1.00;;;;;;;21.01;53.10;101628.56;5002580;28;20047;-83
2022/09/01 11:52:31;;;;;;;2.13;0.70;;;;;;;20.93;53.62;101620.88;5000835;28;20041;-79
2022/09/01 11:54:58;;;;;;;1.10;0.70;;;;;;;21.06;52.84;101635.47;5018900;28;20410;-80
2022/09/01 11:57:36;;;;;;;1.58;0.82;;;;;;;21.06;51.78;101630.09;5014148;28;20052;-81